Time;durP1;ratioP1;P1;durP2;ratioP2;P2;SDS_P1;SDS_P2;PMS_P1;PMS_P2;Temp;Humidity;BMP_temperature;BMP_pressure;BME280_temperature;BME280_humidity;BME280_pressure;Samples;Min_cycle;Max_cycle;Signal;HPM_P1;HPM_P2
2022/11/24 00:02:04;;;;;;;21.88;4.63;;;9.30;99.90;;;;;;6221176;23;20315;-83
2022/11/24 00:04:30;;;;;;;18.40;3.80;;;9.30;99.90;;;;;;6247909;22;20472;-84
2022/11/24 00:06:56;;;;;;;24.10;4.60;;;9.30;99.90;;;;;;6247259;22;20007;-84
2022/11/24 00:09:21;;;;;;;22.30;5.18;;;9.30;99.90;;;;;;6247582;22;20107;-84
2022/11/24 00:11:47;;;;;;;16.00;3.40;;;9.30;99.90;;;;;;6220553;23;20004;-84
2022/11/24 00:14:12;;;;;;;24.52;4.63;;;9.30;99.90;;;;;;6215396;23;20108;-84
2022/11/24 00:16:38;;;;;;;20.50;3.83;;;9.40;99.90;;;;;;6215075;23;20062;-83
2022/11/24 00:19:10;;;;;;;25.55;3.97;;;9.40;99.90;;;;;;6215858;23;20032;-84
2022/11/24 00:21:37;;;;;;;21.90;4.22;;;9.40;99.90;;;;;;6215930;23;20327;-83
2022/11/24 00:24:03;;;;;;;16.73;3.55;;;9.40;99.90;;;;;;6215914;23;20008;-83
2022/11/24 00:26:33;;;;;;;23.90;4.57;;;9.40;99.90;;;;;;6217392;23;20025;-83
2022/11/24 00:29:02;;;;;;;18.73;3.60;;;9.40;99.90;;;;;;6215657;23;20032;-83
2022/11/24 00:31:33;;;;;;;22.05;3.85;;;9.30;99.90;;;;;;6215824;23;20008;-83
2022/11/24 00:34:02;;;;;;;26.35;4.65;;;9.30;99.90;;;;;;6215207;23;20004;-83
2022/11/24 00:36:30;;;;;;;19.02;3.88;;;9.30;99.90;;;;;;6215778;23;20103;-83
2022/11/24 00:39:01;;;;;;;27.92;4.38;;;9.30;99.90;;;;;;6216855;23;20007;-84
2022/11/24 00:41:28;;;;;;;29.30;4.20;;;9.30;99.90;;;;;;6215586;23;20013;-83
2022/11/24 00:43:54;;;;;;;21.00;3.30;;;9.30;99.90;;;;;;6217177;23;20005;-84
2022/11/24 00:46:20;;;;;;;17.83;3.90;;;9.30;99.90;;;;;;6215833;23;20047;-84
2022/11/24 00:48:46;;;;;;;22.15;3.60;;;9.30;99.90;;;;;;6215430;23;20012;-84
2022/11/24 00:51:14;;;;;;;21.23;3.58;;;9.30;99.90;;;;;;6216652;23;20075;-83
2022/11/24 00:53:40;;;;;;;20.90;3.92;;;9.40;99.90;;;;;;6215068;23;20005;-84
2022/11/24 00:56:07;;;;;;;23.63;5.25;;;9.40;99.90;;;;;;6215537;23;20072;-83
2022/11/24 00:58:32;;;;;;;24.45;4.63;;;9.30;99.90;;;;;;6217061;23;20008;-84
2022/11/24 01:01:06;;;;;;;17.90;3.63;;;9.40;99.90;;;;;;6215047;23;20419;-83
2022/11/24 01:03:33;;;;;;;12.77;2.72;;;9.40;99.90;;;;;;6215493;23;20066;-83
2022/11/24 01:06:07;;;;;;;19.20;3.45;;;9.40;99.90;;;;;;6190443;23;20005;-85
2022/11/24 01:08:33;;;;;;;18.45;4.18;;;9.40;99.90;;;;;;6217126;23;20028;-84
2022/11/24 01:11:27;;;;;;;21.65;3.65;;;9.30;99.90;;;;;;6215292;23;20011;-84
2022/11/24 01:13:56;;;;;;;21.58;3.85;;;9.30;99.90;;;;;;6209558;23;20044;-84
2022/11/24 01:16:29;;;;;;;17.92;3.17;;;9.30;99.90;;;;;;6215608;23;20000;-84
2022/11/24 01:18:55;;;;;;;23.80;3.65;;;9.40;99.90;;;;;;6214939;23;20028;-84
2022/11/24 01:21:21;;;;;;;18.17;3.50;;;9.40;99.90;;;;;;6216682;23;20009;-83
2022/11/24 01:23:47;;;;;;;25.40;4.63;;;9.30;99.90;;;;;;6216067;23;20009;-84
2022/11/24 01:26:16;;;;;;;18.58;3.40;;;9.40;99.90;;;;;;6215293;23;20005;-83
2022/11/24 01:28:42;;;;;;;12.43;2.65;;;9.40;99.90;;;;;;6215146;23;20431;-84
2022/11/24 01:31:08;;;;;;;17.35;2.97;;;9.40;99.90;;;;;;6214669;23;20008;-84
2022/11/24 01:33:34;;;;;;;22.38;5.20;;;9.30;99.90;;;;;;6189552;23;20008;-84
2022/11/24 01:36:01;;;;;;;21.80;3.35;;;9.30;99.90;;;;;;6215724;23;20062;-84
2022/11/24 01:38:27;;;;;;;15.63;3.10;;;9.40;99.90;;;;;;6214619;23;20156;-84
2022/11/24 01:41:05;;;;;;;18.80;2.92;;;9.30;99.90;;;;;;6214589;23;20408;-84
2022/11/24 01:43:31;;;;;;;15.73;3.40;;;9.30;99.90;;;;;;6216711;23;20001;-84
2022/11/24 01:46:04;;;;;;;20.08;4.30;;;9.30;99.90;;;;;;6214778;23;20004;-84
2022/11/24 01:48:39;;;;;;;21.73;3.08;;;9.20;99.90;;;;;;6214797;23;20043;-84
2022/11/24 01:51:10;;;;;;;12.82;2.60;;;9.30;99.90;;;;;;6216276;23;20419;-84
2022/11/24 01:53:38;;;;;;;20.00;4.00;;;9.30;99.90;;;;;;6215045;23;20079;-83
2022/11/24 01:56:05;;;;;;;17.15;3.60;;;9.30;99.90;;;;;;6214893;23;20095;-83
2022/11/24 01:58:33;;;;;;;19.58;2.60;;;9.30;99.90;;;;;;6189546;23;20001;-83
2022/11/24 02:00:58;;;;;;;18.98;3.00;;;9.30;99.90;;;;;;6214439;23;20086;-83
2022/11/24 02:03:29;;;;;;;19.58;3.45;;;9.30;99.90;;;;;;6214995;23;20008;-83
2022/11/24 02:06:07;;;;;;;;;;;9.30;99.90;;;;;;6216489;23;20067;-83
2022/11/24 02:08:53;;;;;;;16.25;2.80;;;9.30;99.90;;;;;;6216387;23;19979;-83
2022/11/24 02:11:22;;;;;;;19.08;3.35;;;9.20;99.90;;;;;;6214796;23;20008;-83
2022/11/24 02:13:50;;;;;;;14.75;2.70;;;9.20;99.90;;;;;;6214706;23;20063;-84
2022/11/24 02:16:16;;;;;;;15.80;3.30;;;9.20;99.90;;;;;;6215584;23;20011;-83
2022/11/24 02:18:43;;;;;;;18.02;3.10;;;9.20;99.90;;;;;;6189465;23;20008;-83
2022/11/24 02:21:12;;;;;;;22.17;3.50;;;9.20;99.90;;;;;;6214057;23;20066;-84
2022/11/24 02:24:06;;;;;;;17.58;2.97;;;9.20;99.90;;;;;;6214541;23;20054;-83
2022/11/24 02:26:52;;;;;;;14.90;3.38;;;9.20;99.90;;;;;;6216139;23;20004;-83
2022/11/24 02:29:19;;;;;;;22.90;3.13;;;9.20;99.90;;;;;;6215741;23;20000;-82
2022/11/24 02:31:51;;;;;;;20.98;3.78;;;9.20;99.90;;;;;;6189940;23;20001;-83
2022/11/24 02:34:17;;;;;;;15.10;3.45;;;9.20;99.90;;;;;;6213974;23;20024;-82
2022/11/24 02:36:42;;;;;;;16.58;2.80;;;9.20;99.90;;;;;;6214525;23;20043;-83
2022/11/24 02:39:13;;;;;;;15.38;3.00;;;9.20;99.90;;;;;;6215461;23;20415;-82
2022/11/24 02:41:45;;;;;;;18.60;2.92;;;9.20;99.90;;;;;;6215936;23;20088;-83
2022/11/24 02:44:14;;;;;;;20.42;3.63;;;9.20;99.90;;;;;;6215347;23;20323;-83
2022/11/24 02:46:40;;;;;;;20.80;3.70;;;9.20;99.90;;;;;;6215716;23;20000;-83
2022/11/24 02:49:05;;;;;;;21.77;3.10;;;9.20;99.90;;;;;;6213921;23;20027;-84
2022/11/24 02:51:33;;;;;;;19.30;3.08;;;9.20;99.90;;;;;;6164449;23;20092;-83
2022/11/24 02:53:59;;;;;;;15.85;3.03;;;9.20;99.90;;;;;;6213877;23;20008;-84
2022/11/24 02:56:25;;;;;;;15.40;3.42;;;9.20;99.90;;;;;;6214141;23;20009;-84
2022/11/24 02:58:51;;;;;;;14.00;2.92;;;9.20;99.90;;;;;;6215819;23;20001;-83
2022/11/24 03:01:17;;;;;;;24.10;4.40;;;9.20;99.90;;;;;;6212976;23;20015;-84
2022/11/24 03:03:42;;;;;;;25.10;4.00;;;9.20;99.90;;;;;;6214969;23;20019;-83
2022/11/24 03:06:08;;;;;;;25.67;3.67;;;9.20;99.90;;;;;;6214124;23;20000;-84
2022/11/24 03:08:34;;;;;;;26.80;4.18;;;9.20;99.90;;;;;;6213700;23;20005;-83
2022/11/24 03:11:01;;;;;;;19.70;3.17;;;9.20;99.90;;;;;;6215384;23;20020;-84
2022/11/24 03:13:26;;;;;;;17.92;4.03;;;9.10;99.90;;;;;;6214199;23;20012;-84
2022/11/24 03:15:52;;;;;;;13.20;2.92;;;9.10;99.90;;;;;;6164195;23;20008;-83
2022/11/24 03:18:18;;;;;;;21.60;3.47;;;9.10;99.90;;;;;;6215327;23;20001;-83
2022/11/24 03:20:44;;;;;;;18.10;3.75;;;9.10;99.90;;;;;;6214562;23;20012;-83
2022/11/24 03:23:09;;;;;;;17.88;3.53;;;9.10;99.90;;;;;;6214282;23;20015;-83
2022/11/24 03:25:35;;;;;;;18.17;3.75;;;9.10;99.90;;;;;;6216098;23;20024;-83
2022/11/24 03:28:01;;;;;;;24.38;5.20;;;9.10;99.90;;;;;;6213612;23;20001;-83
2022/11/24 03:30:26;;;;;;;14.93;3.08;;;9.10;99.90;;;;;;6214050;23;20008;-83
2022/11/24 03:32:54;;;;;;;16.20;3.83;;;9.10;99.90;;;;;;6215935;23;20008;-82
2022/11/24 03:35:21;;;;;;;19.15;3.13;;;9.10;99.90;;;;;;6217469;23;20005;-83
2022/11/24 03:37:47;;;;;;;20.73;3.50;;;9.10;99.90;;;;;;6216002;23;20004;-83
2022/11/24 03:40:12;;;;;;;21.77;3.65;;;9.10;99.90;;;;;;6215972;23;20095;-83
2022/11/24 03:42:39;;;;;;;18.67;3.08;;;9.10;99.90;;;;;;6190963;23;20474;-83
2022/11/24 03:45:05;;;;;;;19.77;4.03;;;9.10;99.90;;;;;;6215915;23;20001;-85
2022/11/24 03:47:31;;;;;;;18.60;3.40;;;9.10;99.90;;;;;;6215985;23;20473;-83
2022/11/24 03:49:57;;;;;;;14.55;3.33;;;9.10;99.90;;;;;;6190852;23;20004;-83
2022/11/24 03:52:25;;;;;;;17.48;3.20;;;9.20;99.90;;;;;;6217534;23;20000;-83
2022/11/24 03:54:51;;;;;;;16.67;3.72;;;9.20;99.90;;;;;;6215893;23;20005;-83
2022/11/24 03:57:17;;;;;;;19.55;3.55;;;9.20;99.90;;;;;;6216898;23;20313;-84
2022/11/24 03:59:42;;;;;;;17.08;3.15;;;9.20;99.90;;;;;;6191180;23;20331;-83
2022/11/24 04:02:08;;;;;;;16.27;3.58;;;9.20;99.90;;;;;;6215401;23;20439;-83
2022/11/24 04:04:33;;;;;;;22.00;3.95;;;9.20;99.90;;;;;;6191398;23;20013;-83
2022/11/24 04:06:59;;;;;;;18.02;3.25;;;9.10;99.90;;;;;;6191040;23;20324;-83
2022/11/24 04:09:25;;;;;;;14.93;3.10;;;9.20;99.90;;;;;;6190250;23;20028;-82
2022/11/24 04:14:34;;;;;;;23.33;3.72;;;9.10;99.90;;;;;;6216046;23;20128;-82
2022/11/24 04:17:03;;;;;;;20.98;3.80;;;9.10;99.90;;;;;;6165979;23;20040;-83
2022/11/24 04:19:28;;;;;;;16.50;3.42;;;9.20;99.90;;;;;;6216999;23;20043;-83
2022/11/24 04:21:54;;;;;;;21.83;3.70;;;9.20;99.90;;;;;;6165969;23;20005;-83
2022/11/24 04:24:20;;;;;;;15.55;3.03;;;9.20;99.90;;;;;;6190459;23;20439;-83
2022/11/24 04:26:46;;;;;;;23.63;3.70;;;9.20;99.90;;;;;;6190405;23;20415;-83
2022/11/24 04:29:11;;;;;;;17.92;4.28;;;9.10;99.90;;;;;;6165652;23;20015;-82
2022/11/24 04:31:39;;;;;;;18.60;3.15;;;9.10;99.90;;;;;;6215656;23;20032;-83
2022/11/24 04:34:05;;;;;;;21.50;3.72;;;9.10;99.90;;;;;;6215762;23;20001;-83
2022/11/24 04:36:30;;;;;;;14.80;3.80;;;9.10;99.90;;;;;;6215629;23;20005;-83
2022/11/24 04:38:56;;;;;;;22.92;3.35;;;9.10;99.90;;;;;;6166021;23;20083;-82
2022/11/24 04:41:22;;;;;;;19.05;3.13;;;9.10;99.90;;;;;;6216650;23;20326;-83
2022/11/24 04:43:49;;;;;;;20.35;4.18;;;9.00;99.90;;;;;;6190314;23;20008;-83
2022/11/24 04:46:15;;;;;;;18.98;3.88;;;9.00;99.90;;;;;;6215259;23;20071;-83
2022/11/24 04:48:41;;;;;;;21.65;4.18;;;9.00;99.90;;;;;;6217086;23;20000;-83
2022/11/24 04:51:07;;;;;;;22.50;3.85;;;9.00;99.90;;;;;;6215277;23;20032;-83
2022/11/24 04:53:32;;;;;;;21.40;4.78;;;9.00;99.90;;;;;;6190174;23;20009;-83
2022/11/24 04:55:58;;;;;;;14.32;3.13;;;9.00;99.90;;;;;;6215543;23;20004;-82
2022/11/24 04:58:24;;;;;;;20.30;4.05;;;9.00;99.90;;;;;;6215587;23;20001;-83
2022/11/24 05:00:49;;;;;;;13.30;3.28;;;9.00;99.90;;;;;;6215312;23;20004;-82
2022/11/24 05:03:15;;;;;;;20.55;3.58;;;9.00;99.90;;;;;;6214804;23;20087;-83
2022/11/24 05:05:41;;;;;;;15.10;2.55;;;9.10;99.90;;;;;;6215506;23;20323;-83
2022/11/24 05:08:07;;;;;;;23.25;4.03;;;9.10;99.90;;;;;;6190216;23;20331;-83
2022/11/24 05:10:36;;;;;;;17.08;3.42;;;9.10;99.90;;;;;;6189209;23;20091;-83
2022/11/24 05:13:08;;;;;;;16.50;3.70;;;9.10;99.90;;;;;;6214328;23;20103;-83
2022/11/24 05:15:36;;;;;;;16.30;3.00;;;9.20;99.90;;;;;;6213799;23;20011;-83
2022/11/24 05:18:07;;;;;;;17.80;3.67;;;9.20;99.90;;;;;;6215884;23;20003;-82
2022/11/24 05:20:35;;;;;;;16.75;2.88;;;9.20;99.90;;;;;;6214756;23;20804;-83
2022/11/24 05:23:06;;;;;;;13.80;2.45;;;9.20;99.90;;;;;;6215159;23;20008;-83
2022/11/24 05:25:33;;;;;;;10.52;2.58;;;9.20;99.90;;;;;;6214881;23;20080;-83
2022/11/24 05:28:01;;;;;;;11.40;2.38;;;9.30;99.90;;;;;;6215098;23;20001;-82
2022/11/24 05:30:27;;;;;;;13.38;2.40;;;9.30;99.90;;;;;;6214659;23;20022;-83
2022/11/24 05:32:53;;;;;;;15.18;3.05;;;9.30;99.90;;;;;;6165448;23;20028;-83
2022/11/24 05:35:20;;;;;;;16.92;3.00;;;9.40;99.90;;;;;;6214439;23;20023;-83
2022/11/24 05:37:46;;;;;;;11.18;2.10;;;9.40;99.90;;;;;;6215805;23;20054;-83
2022/11/24 05:40:12;;;;;;;11.63;2.33;;;9.40;99.90;;;;;;6214820;23;20020;-84
2022/11/24 05:42:40;;;;;;;8.93;2.75;;;9.40;99.90;;;;;;6215809;23;20005;-82
2022/11/24 05:45:17;;;;;;;10.90;2.83;;;9.40;99.90;;;;;;6190588;23;20004;-83
2022/11/24 05:47:43;;;;;;;14.90;3.28;;;9.40;99.90;;;;;;6214911;23;20005;-83
2022/11/24 05:50:12;;;;;;;10.00;2.40;;;9.40;99.90;;;;;;6215426;23;20008;-83
2022/11/24 05:52:38;;;;;;;11.35;3.00;;;9.40;99.90;;;;;;6216092;23;19996;-82
2022/11/24 05:55:05;;;;;;;9.95;2.38;;;9.40;99.90;;;;;;6214861;23;20055;-82
2022/11/24 05:57:32;;;;;;;12.10;2.50;;;9.40;99.90;;;;;;6216212;23;20036;-83
2022/11/24 05:59:57;;;;;;;9.85;2.05;;;9.40;99.90;;;;;;6215885;23;20015;-82
2022/11/24 06:02:23;;;;;;;7.32;1.67;;;9.40;99.90;;;;;;6214021;23;20013;-83
2022/11/24 06:04:49;;;;;;;14.23;2.17;;;9.40;99.90;;;;;;6188947;23;20087;-85
2022/11/24 06:07:15;;;;;;;8.93;1.77;;;9.40;99.90;;;;;;6164234;23;20487;-84
2022/11/24 06:09:42;;;;;;;6.20;1.55;;;9.40;99.90;;;;;;6187421;23;20013;-83
2022/11/24 06:12:09;;;;;;;9.52;1.95;;;9.40;99.90;;;;;;6188839;23;20059;-84
2022/11/24 06:14:36;;;;;;;8.38;1.60;;;9.40;99.90;;;;;;6212148;23;20012;-83
2022/11/24 06:17:02;;;;;;;7.68;1.60;;;9.40;99.90;;;;;;6215240;23;20048;-82
2022/11/24 06:19:28;;;;;;;8.95;1.83;;;9.40;99.90;;;;;;6219072;23;20007;-82
2022/11/24 06:21:54;;;;;;;9.23;1.90;;;9.40;99.90;;;;;;6214615;23;20009;-82
2022/11/24 06:24:19;;;;;;;8.50;1.38;;;9.40;99.90;;;;;;6189567;23;20004;-82
2022/11/24 06:26:45;;;;;;;7.97;2.17;;;9.40;99.90;;;;;;6189648;23;20047;-82
2022/11/24 06:29:11;;;;;;;7.68;1.95;;;9.40;99.90;;;;;;6214858;23;20054;-82
2022/11/24 06:31:39;;;;;;;5.72;1.40;;;9.40;99.90;;;;;;6215701;23;20007;-82
2022/11/24 06:34:06;;;;;;;10.43;1.85;;;9.40;99.90;;;;;;6216629;23;20012;-83
2022/11/24 06:36:33;;;;;;;6.95;1.33;;;9.40;99.90;;;;;;6214433;23;20009;-83
2022/11/24 06:39:01;;;;;;;5.95;1.80;;;9.40;99.90;;;;;;6216260;23;20008;-83
2022/11/24 06:41:27;;;;;;;5.95;1.65;;;9.40;99.90;;;;;;6214046;23;20497;-84
2022/11/24 06:43:53;;;;;;;6.90;1.50;;;9.40;99.90;;;;;;6214891;23;20005;-83
2022/11/24 06:46:19;;;;;;;7.93;1.90;;;9.40;99.90;;;;;;6214403;23;20087;-83
2022/11/24 06:48:46;;;;;;;5.50;1.95;;;9.40;99.90;;;;;;6189815;23;20005;-84
2022/11/24 06:51:12;;;;;;;6.65;1.63;;;9.40;99.90;;;;;;6214567;23;20009;-84
2022/11/24 06:53:39;;;;;;;8.50;1.48;;;9.40;99.90;;;;;;6214021;23;20078;-84
2022/11/24 06:56:08;;;;;;;5.15;1.98;;;9.40;99.90;;;;;;6214314;23;20005;-83
2022/11/24 06:58:34;;;;;;;7.88;1.70;;;9.40;99.90;;;;;;6215550;23;20035;-84
2022/11/24 07:01:00;;;;;;;3.58;1.52;;;9.40;99.90;;;;;;6215959;23;20012;-84
2022/11/24 07:03:25;;;;;;;8.32;1.70;;;9.40;99.90;;;;;;6213880;23;20305;-85
2022/11/24 07:05:56;;;;;;;9.02;1.88;;;9.30;99.90;;;;;;6216033;23;20000;-83
2022/11/24 07:08:22;;;;;;;9.35;2.50;;;9.30;99.90;;;;;;6189077;23;20332;-83
2022/11/24 07:10:48;;;;;;;9.32;2.47;;;9.30;99.90;;;;;;6215544;23;20011;-84
2022/11/24 07:13:13;;;;;;;6.93;2.47;;;9.30;99.90;;;;;;6163814;23;20046;-84
2022/11/24 07:15:39;;;;;;;7.00;2.67;;;9.20;99.90;;;;;;6215781;23;20059;-83
2022/11/24 07:18:05;;;;;;;8.02;2.67;;;9.20;99.90;;;;;;6163877;23;20084;-84
2022/11/24 07:20:30;;;;;;;10.93;3.55;;;9.30;99.90;;;;;;6188691;23;20349;-84
2022/11/24 07:22:57;;;;;;;8.40;3.17;;;9.30;99.90;;;;;;6188979;23;20005;-84
2022/11/24 07:25:23;;;;;;;13.07;3.58;;;9.30;99.90;;;;;;6215713;23;20015;-84
2022/11/24 07:27:54;;;;;;;9.15;3.90;;;9.30;99.90;;;;;;6213822;23;20501;-84
2022/11/24 07:30:19;;;;;;;10.50;3.55;;;9.40;99.90;;;;;;6190148;23;20327;-84
2022/11/24 07:32:45;;;;;;;12.65;4.00;;;9.40;99.90;;;;;;6213938;23;20000;-84
2022/11/24 07:35:11;;;;;;;8.70;3.70;;;9.40;99.90;;;;;;6188980;23;20009;-84
2022/11/24 07:37:36;;;;;;;10.52;3.85;;;9.30;99.90;;;;;;6188774;23;20009;-84
2022/11/24 07:40:02;;;;;;;10.80;3.92;;;9.40;99.90;;;;;;6164097;23;20017;-85
2022/11/24 07:42:28;;;;;;;11.38;4.38;;;9.40;99.90;;;;;;6213884;23;20016;-84
2022/11/24 07:44:54;;;;;;;10.30;4.90;;;9.40;99.90;;;;;;6188335;23;20327;-84
2022/11/24 07:47:19;;;;;;;8.88;4.68;;;9.40;99.90;;;;;;6213585;23;20461;-84
2022/11/24 07:49:45;;;;;;;11.20;5.35;;;9.40;99.90;;;;;;6163797;23;20009;-84
2022/11/24 07:52:10;;;;;;;19.05;5.70;;;9.40;99.90;;;;;;6189092;23;20005;-84
2022/11/24 07:54:36;;;;;;;12.45;5.78;;;9.40;99.90;;;;;;6214012;23;20001;-84
2022/11/24 07:57:02;;;;;;;10.55;5.60;;;9.40;99.90;;;;;;6189001;23;20015;-83
2022/11/24 07:59:27;;;;;;;13.55;5.75;;;9.40;99.90;;;;;;6213844;23;20320;-83
2022/11/24 08:01:53;;;;;;;11.85;5.63;;;9.40;99.90;;;;;;6163866;23;20051;-83
2022/11/24 08:04:18;;;;;;;9.88;6.15;;;9.40;99.90;;;;;;6214135;23;20415;-83
2022/11/24 08:06:44;;;;;;;13.18;6.03;;;9.40;99.90;;;;;;6213501;23;20058;-84
2022/11/24 08:09:10;;;;;;;11.00;5.63;;;9.40;99.90;;;;;;6213710;23;20032;-84
2022/11/24 08:11:35;;;;;;;11.02;5.32;;;9.40;99.90;;;;;;6213568;23;20009;-84
2022/11/24 08:14:01;;;;;;;13.35;5.32;;;9.40;99.90;;;;;;6213769;23;20122;-84
2022/11/24 08:16:27;;;;;;;13.52;6.30;;;9.40;99.90;;;;;;6213810;23;20004;-84
2022/11/24 08:18:54;;;;;;;12.02;5.30;;;9.40;99.90;;;;;;6216491;23;20055;-84
2022/11/24 08:21:21;;;;;;;18.70;5.07;;;9.40;99.90;;;;;;6166012;23;20012;-84
2022/11/24 08:23:47;;;;;;;10.23;4.63;;;9.40;99.90;;;;;;6215363;23;20000;-84
2022/11/24 08:26:17;;;;;;;8.93;4.13;;;9.40;99.90;;;;;;6217312;23;20423;-85
2022/11/24 08:28:44;;;;;;;14.18;4.63;;;9.40;99.90;;;;;;6216739;23;20106;-84
2022/11/24 08:31:17;;;;;;;10.55;4.13;;;9.40;99.90;;;;;;6215446;23;20036;-84
2022/11/24 08:33:43;;;;;;;12.95;4.00;;;9.40;99.90;;;;;;6214285;23;20029;-84
2022/11/24 08:36:11;;;;;;;9.80;3.85;;;9.50;99.90;;;;;;6214386;23;20001;-84
2022/11/24 08:38:37;;;;;;;11.13;3.80;;;9.50;99.90;;;;;;6215515;23;20027;-83
2022/11/24 08:41:05;;;;;;;10.10;3.58;;;9.50;99.90;;;;;;6215508;23;20393;-84
2022/11/24 08:43:31;;;;;;;9.70;3.95;;;9.50;99.90;;;;;;6216837;23;20033;-84
2022/11/24 08:46:02;;;;;;;11.75;4.05;;;9.50;99.90;;;;;;6165702;23;20012;-83
2022/11/24 08:48:28;;;;;;;9.93;3.80;;;9.50;99.90;;;;;;6216980;23;20012;-83
2022/11/24 08:50:54;;;;;;;10.38;3.80;;;9.60;99.90;;;;;;6216279;23;20100;-83
2022/11/24 08:53:20;;;;;;;8.73;3.60;;;9.60;99.90;;;;;;6215073;23;20378;-83
2022/11/24 08:55:49;;;;;;;8.50;3.17;;;9.60;99.90;;;;;;6190240;23;20001;-83
2022/11/24 08:58:15;;;;;;;13.77;4.97;;;9.60;99.90;;;;;;6215090;23;20051;-83
2022/11/24 09:00:43;;;;;;;16.13;4.00;;;9.70;99.90;;;;;;6215148;23;20013;-82
2022/11/24 09:03:11;;;;;;;13.13;3.47;;;9.60;99.90;;;;;;6215562;23;20415;-82
2022/11/24 09:05:36;;;;;;;11.20;3.50;;;9.60;99.90;;;;;;6216827;23;20026;-82
2022/11/24 09:08:02;;;;;;;14.43;3.50;;;9.70;99.90;;;;;;6189833;23;20008;-83
2022/11/24 09:10:28;;;;;;;13.02;3.70;;;9.70;99.90;;;;;;6216399;23;20009;-82
2022/11/24 09:12:54;;;;;;;11.30;3.75;;;9.70;99.90;;;;;;6217560;23;20332;-82
2022/11/24 09:15:19;;;;;;;12.57;3.83;;;9.70;99.90;;;;;;6246678;22;20008;-82
2022/11/24 09:17:45;;;;;;;12.40;4.03;;;9.70;99.90;;;;;;6247048;22;20319;-83
2022/11/24 09:20:11;;;;;;;12.45;3.40;;;9.70;99.90;;;;;;6195197;23;20099;-83
2022/11/24 09:22:38;;;;;;;12.43;3.42;;;9.70;99.90;;;;;;6247203;22;20000;-83
2022/11/24 09:25:05;;;;;;;11.73;3.38;;;9.70;99.90;;;;;;6252063;23;20008;-83
2022/11/24 09:27:31;;;;;;;15.75;4.65;;;9.70;99.90;;;;;;6224325;23;20028;-83
2022/11/24 09:29:56;;;;;;;12.40;2.95;;;9.70;99.90;;;;;;6199129;23;20031;-83
2022/11/24 09:32:22;;;;;;;12.25;3.35;;;9.70;99.90;;;;;;6250034;22;20031;-82
2022/11/24 09:34:50;;;;;;;9.98;3.72;;;9.60;99.90;;;;;;6197948;23;20319;-82
2022/11/24 09:37:16;;;;;;;11.75;2.65;;;9.70;99.90;;;;;;6203442;23;20087;-82
2022/11/24 09:39:42;;;;;;;11.88;2.33;;;9.70;99.90;;;;;;6214436;23;20000;-91
2022/11/24 09:42:34;;;;;;;13.02;3.35;;;9.70;99.90;;;;;;6212462;23;20028;-81
2022/11/24 09:45:44;;;;;;;10.32;2.40;;;9.70;99.90;;;;;;6259018;22;20019;-82
2022/11/24 09:48:20;;;;;;;14.35;3.33;;;9.70;99.90;;;;;;6223135;23;20007;-82
2022/11/24 09:50:47;;;;;;;12.43;2.83;;;9.70;99.90;;;;;;6252311;23;20330;-83
2022/11/24 09:53:31;;;;;;;9.40;2.50;;;9.80;99.90;;;;;;6195061;23;20419;-82
2022/11/24 09:56:13;;;;;;;12.50;2.60;;;9.80;99.90;;;;;;6246367;23;20071;-83
2022/11/24 09:58:49;;;;;;;7.35;2.20;;;9.80;99.90;;;;;;6246627;23;20000;-83
2022/11/24 10:01:21;;;;;;;11.40;2.63;;;9.80;99.90;;;;;;6219767;23;20015;-82
2022/11/24 10:03:51;;;;;;;11.73;2.72;;;9.90;99.90;;;;;;6246572;23;20024;-83
2022/11/24 10:06:39;;;;;;;9.57;2.45;;;9.90;99.90;;;;;;6246361;23;20000;-83
2022/11/24 10:09:32;;;;;;;11.20;2.80;;;10.00;99.90;;;;;;6246045;23;20032;-83
2022/11/24 10:12:22;;;;;;;11.90;2.50;;;10.00;99.90;;;;;;6219607;23;20007;-82
2022/11/24 10:15:14;;;;;;;12.27;2.88;;;10.10;99.90;;;;;;6245536;22;20008;-83
2022/11/24 10:18:17;;;;;;;10.43;2.08;;;10.20;99.90;;;;;;6213357;23;20035;-82
2022/11/24 10:20:55;;;;;;;9.60;2.13;;;10.20;99.90;;;;;;6184101;22;20012;-82
2022/11/24 10:23:50;;;;;;;15.20;2.45;;;10.30;99.90;;;;;;6246142;23;20015;-83
2022/11/24 10:26:48;;;;;;;10.55;2.80;;;10.40;99.90;;;;;;6219613;23;20075;-81
2022/11/24 10:29:22;;;;;;;13.15;2.90;;;10.50;99.90;;;;;;6202901;23;20000;-82
2022/11/24 10:31:54;;;;;;;13.57;2.90;;;10.50;99.90;;;;;;6245896;23;20008;-84
2022/11/24 10:34:59;;;;;;;14.88;3.78;;;10.50;99.90;;;;;;6219512;23;20004;-83
2022/11/24 10:37:41;;;;;;;9.80;2.65;;;10.60;99.90;;;;;;6213530;23;20004;-82
2022/11/24 10:40:32;;;;;;;8.07;2.03;;;10.70;99.90;;;;;;6245892;23;20032;-83
2022/11/24 10:42:58;;;;;;;15.10;2.80;;;10.70;99.90;;;;;;6219077;23;20079;-83
2022/11/24 10:45:26;;;;;;;15.88;3.72;;;10.80;99.90;;;;;;6219250;23;20031;-83
2022/11/24 10:47:52;;;;;;;13.77;2.85;;;10.90;99.90;;;;;;6245969;23;20000;-83
2022/11/24 10:50:26;;;;;;;8.63;2.60;;;11.00;99.90;;;;;;6217955;23;20011;-84
2022/11/24 10:53:19;;;;;;;15.57;2.88;;;11.10;99.90;;;;;;6219215;23;20000;-85
2022/11/24 10:55:54;;;;;;;12.82;2.72;;;11.10;99.90;;;;;;6247097;23;20426;-87
2022/11/24 10:58:23;;;;;;;13.27;2.92;;;11.20;99.90;;;;;;6219659;23;20291;-87
2022/11/24 11:00:49;;;;;;;16.98;2.35;;;11.20;99.90;;;;;;6218235;23;20418;-85
2022/11/24 11:03:20;;;;;;;18.80;3.90;;;11.30;99.90;;;;;;6193950;23;20028;-83
2022/11/24 11:05:49;;;;;;;;;;;11.40;99.90;;;;;;6247037;23;20035;-84
2022/11/24 11:08:24;;;;;;;12.63;2.45;;;11.40;99.90;;;;;;6218636;23;19986;-83
2022/11/24 11:11:11;;;;;;;16.00;3.53;;;11.50;99.90;;;;;;6246094;23;20000;-82
2022/11/24 11:13:37;;;;;;;15.00;2.50;;;11.60;99.90;;;;;;6217830;23;20012;-84
2022/11/24 11:16:21;;;;;;;12.27;3.33;;;11.60;99.90;;;;;;6246036;23;20445;-83
2022/11/24 11:18:48;;;;;;;17.55;3.05;;;11.70;99.90;;;;;;6218468;23;20032;-83
2022/11/24 11:21:32;;;;;;;14.35;2.95;;;11.80;99.90;;;;;;6219047;23;20491;-83
2022/11/24 11:23:59;;;;;;;13.02;3.03;;;11.90;99.90;;;;;;6218780;23;20054;-82
2022/11/24 11:26:29;;;;;;;12.85;2.88;;;11.90;99.90;;;;;;6218622;23;20000;-82
2022/11/24 11:29:18;;;;;;;17.15;3.15;;;12.00;99.90;;;;;;6245742;22;20078;-84
2022/11/24 11:31:57;;;;;;;15.48;3.08;;;12.10;99.90;;;;;;6219104;23;20004;-83
2022/11/24 11:34:22;;;;;;;16.40;3.25;;;12.20;99.90;;;;;;6246013;23;20410;-83
2022/11/24 11:36:52;;;;;;;11.20;2.63;;;12.20;99.90;;;;;;6194178;23;20051;-83
2022/11/24 11:39:25;;;;;;;14.23;2.88;;;12.30;99.90;;;;;;6218629;23;20003;-83
2022/11/24 11:42:01;;;;;;;12.02;2.67;;;12.30;99.90;;;;;;6245648;23;20032;-83
2022/11/24 11:44:45;;;;;;;12.88;2.80;;;12.40;99.90;;;;;;6217979;23;20038;-83
2022/11/24 11:47:32;;;;;;;14.18;3.03;;;12.40;99.90;;;;;;6217526;23;19996;-82
2022/11/24 11:49:58;;;;;;;19.40;3.90;;;12.50;99.90;;;;;;6218257;23;20000;-83
2022/11/24 11:52:59;;;;;;;15.05;3.55;;;12.60;99.90;;;;;;6245731;23;20649;-83
2022/11/24 11:55:39;;;;;;;15.13;2.60;;;12.60;99.90;;;;;;6219490;23;20081;-83
2022/11/24 11:58:27;;;;;;;12.45;3.20;;;12.70;99.90;;;;;;6247701;23;20348;-83
2022/11/24 12:01:12;;;;;;;14.07;3.08;;;12.80;99.90;;;;;;6221112;23;20016;-83
2022/11/24 12:03:38;;;;;;;14.32;3.17;;;12.90;99.90;;;;;;6220886;23;20007;-83
2022/11/24 12:06:26;;;;;;;13.13;3.13;;;12.90;99.90;;;;;;6220755;23;20001;-82
2022/11/24 12:09:12;;;;;;;17.60;3.03;;;13.00;99.90;;;;;;6247819;23;20091;-82
2022/11/24 12:12:18;;;;;;;15.75;3.00;;;13.10;99.90;;;;;;6247993;23;20296;-84
2022/11/24 12:15:10;;;;;;;13.95;3.03;;;13.20;99.90;;;;;;6179843;23;20020;-83
2022/11/24 12:18:14;;;;;;;17.73;3.13;;;13.20;99.90;;;;;;6247808;23;19997;-83
2022/11/24 12:20:58;;;;;;;13.65;3.22;;;13.30;99.90;;;;;;6184872;23;20012;-84
2022/11/24 12:23:48;;;;;;;14.80;3.33;;;13.40;99.90;;;;;;6220386;23;20000;-83
2022/11/24 12:26:48;;;;;;;17.05;3.38;;;13.50;99.90;;;;;;6220689;23;20410;-83
2022/11/24 12:29:40;;;;;;;14.65;2.92;;;13.50;99.90;;;;;;6247720;23;20003;-83
2022/11/24 12:32:43;;;;;;;15.38;3.53;;;13.60;99.90;;;;;;6247602;23;20003;-83
2022/11/24 12:35:35;;;;;;;14.50;3.80;;;13.60;99.90;;;;;;6247293;22;20075;-83
2022/11/24 12:38:09;;;;;;;17.13;3.72;;;13.60;99.90;;;;;;6220535;23;20000;-83
2022/11/24 12:40:44;;;;;;;19.08;3.70;;;13.60;99.90;;;;;;6220419;23;20015;-83
2022/11/24 12:43:29;;;;;;;17.08;3.20;;;13.60;99.90;;;;;;6220106;23;20338;-83
2022/11/24 12:46:14;;;;;;;18.10;3.95;;;13.60;99.90;;;;;;6247714;23;20058;-83
2022/11/24 12:49:22;;;;;;;12.15;2.90;;;13.70;99.90;;;;;;6247673;23;19996;-83
2022/11/24 12:52:03;;;;;;;15.45;3.60;;;13.70;99.90;;;;;;6247518;23;20004;-83
2022/11/24 12:54:38;;;;;;;;;;;13.70;99.90;;;;;;6220980;23;19996;-83
2022/11/24 12:57:45;;;;;;;19.80;3.97;;;13.80;99.90;;;;;;6220112;23;20337;-83
2022/11/24 13:00:14;;;;;;;16.45;3.60;;;13.80;99.90;;;;;;6187030;22;20039;-83
2022/11/24 13:03:17;;;;;;;16.35;3.08;;;13.80;99.90;;;;;;6247063;22;20079;-83
2022/11/24 13:05:58;;;;;;;14.05;3.47;;;13.80;99.90;;;;;;6246846;22;19997;-83
2022/11/24 13:08:26;;;;;;;12.82;2.95;;;13.80;99.90;;;;;;6219872;23;19997;-83
2022/11/24 13:10:52;;;;;;;12.85;2.95;;;13.80;99.90;;;;;;6220087;23;20090;-83